Carnival Victory — 3FFL8 — position and weather

sailwx.info

Track history (hours):
 
Tides and Currents Weather Stations Pressure Air Temp Water Temp Dewpoint Dewpoint Depression Visibility Wind Speed Wind Dir Waves Ship Positions

Carnival Victory

Operator: Carnival Cruise Lines

Last reported at 2014-Sep-01 18:32 UTC. Time now 2014-Sep-01 19:03 UTC.
Position N 25°47' W 080°10'.

Type: Ship. MMSI: 355263000.

Date/timePositionNaut miles runAvg speedWind from/ knotsBaromVisibWave heightAir tempDewpointWater temp
2014-Sep-01 18:32N 25°47' W 080°10'0 0.0
2014-Sep-01 17:22N 25°47' W 080°10'0 0.0
2014-Sep-01 16:31N 25°47' W 080°10'0 0.0
2014-Sep-01 15:25N 25°47' W 080°10'0 0.0
2014-Sep-01 14:30N 25°47' W 080°10'0 0.0
2014-Sep-01 13:24N 25°47' W 080°10'0 0.0
2014-Sep-01 12:32N 25°47' W 080°10'0 0.0
2014-Sep-01 11:29N 25°47' W 080°10'1 0.9
2014-Sep-01 10:33N 25°46' W 080°09'8 8.4
2014-Sep-01 09:34N 25°44' W 080°01'5615.6
2014-Sep-01 06:00N 24°48' W 080°06'31916.0 130 / 131015.010.8 2.028.527.030.0
2014-Aug-31 10:00N 22°06' W 085°06'7418.4 100 / 171011.0 3.027.924.030.3
2014-Aug-31 06:00N 21°12' W 086°00'106 4.4 030 / 81012.0 5.4 3.527.024.030.9
2014-Aug-30 06:00N 22°30' W 084°42'30810.1 110 / 261013.0 2.529.025.031.1
2014-Aug-28 23:33N 25°21' W 080°02'1313.5
2014-Aug-28 22:33N 25°34' W 080°01'1212.3
2014-Aug-28 21:33N 25°46' W 080°05'5 4.7
2014-Aug-28 20:29N 25°47' W 080°10'0 0.0
2014-Aug-28 19:23N 25°47' W 080°10'0 0.0
2014-Aug-28 18:33N 25°47' W 080°10'0 0.0
2014-Aug-28 17:33N 25°47' W 080°10'0 0.0
2014-Aug-28 16:30N 25°47' W 080°10'0 0.0
2014-Aug-28 15:23N 25°47' W 080°10'0 0.0
2014-Aug-28 14:32N 25°47' W 080°10'0 0.0
2014-Aug-28 13:25N 25°47' W 080°10'0 0.0
2014-Aug-28 12:31N 25°47' W 080°10'0 0.0
2014-Aug-28 11:28N 25°47' W 080°10'1 1.1
2014-Aug-28 10:33N 25°46' W 080°09'9 9.1
2014-Aug-28 09:33N 25°42' W 080°00'1312.6
2014-Aug-28 08:32N 25°30' W 079°57'35113.2
2014-Aug-27 06:00N 20°54' W 083°54'19110.1 180 / 121008.0 1.529.526.031.6
2014-Aug-26 11:00N 19°06' W 081°06'32911.3 200 / 81006.0 5.4 1.028.024.030.0
2014-Aug-25 06:00N 19°18' W 075°18'24112.7 160 / 231005.010.8 5.026.022.030.3
2014-Aug-24 11:00N 22°30' W 077°54'9418.7 010 / 231005.0 5.4 2.0 30.0
2014-Aug-24 06:00N 23°30' W 079°12'12319.1 050 / 271007.0 5.029.025.030.8
2014-Aug-23 23:33N 25°27' W 079°54'1717.1
2014-Aug-23 22:33N 25°43' W 080°01'10 9.6
2014-Aug-23 21:33N 25°47' W 080°10'0 0.1
2014-Aug-23 20:31N 25°47' W 080°10'0 0.0
2014-Aug-23 19:27N 25°47' W 080°10'  
Track history (hours):
 
Tides and Currents Weather Stations Pressure Air Temp Water Temp Dewpoint Dewpoint Depression Visibility Wind Speed Wind Dir Waves Ship Positions

Carnival Victory

Operator: Carnival Cruise Lines

Last reported at 2014-Sep-01 18:32 UTC. Time now 2014-Sep-01 19:03 UTC.
Position N 25°47' W 080°10'.

Type: Ship. MMSI: 355263000.

Date/timePositionNaut miles runAvg speedWind from/ knotsBaromVisibWave heightAir tempDewpointWater temp
2014-Sep-01 18:32N 25°47' W 080°10'0 0.0
2014-Sep-01 17:22N 25°47' W 080°10'0 0.0
2014-Sep-01 16:31N 25°47' W 080°10'0 0.0
2014-Sep-01 15:25N 25°47' W 080°10'0 0.0
2014-Sep-01 14:30N 25°47' W 080°10'0 0.0
2014-Sep-01 13:24N 25°47' W 080°10'0 0.0
2014-Sep-01 12:32N 25°47' W 080°10'0 0.0
2014-Sep-01 11:29N 25°47' W 080°10'1 0.9
2014-Sep-01 10:33N 25°46' W 080°09'8 8.4
2014-Sep-01 09:34N 25°44' W 080°01'5615.6
2014-Sep-01 06:00N 24°48' W 080°06'31916.0 130 / 131015.010.8 2.028.527.030.0
2014-Aug-31 10:00N 22°06' W 085°06'7418.4 100 / 171011.0 3.027.924.030.3
2014-Aug-31 06:00N 21°12' W 086°00'106 4.4 030 / 81012.0 5.4 3.527.024.030.9
2014-Aug-30 06:00N 22°30' W 084°42'30810.1 110 / 261013.0 2.529.025.031.1
2014-Aug-28 23:33N 25°21' W 080°02'1313.5
2014-Aug-28 22:33N 25°34' W 080°01'1212.3
2014-Aug-28 21:33N 25°46' W 080°05'5 4.7
2014-Aug-28 20:29N 25°47' W 080°10'0 0.0
2014-Aug-28 19:23N 25°47' W 080°10'0 0.0
2014-Aug-28 18:33N 25°47' W 080°10'0 0.0
2014-Aug-28 17:33N 25°47' W 080°10'0 0.0
2014-Aug-28 16:30N 25°47' W 080°10'0 0.0
2014-Aug-28 15:23N 25°47' W 080°10'0 0.0
2014-Aug-28 14:32N 25°47' W 080°10'0 0.0
2014-Aug-28 13:25N 25°47' W 080°10'0 0.0
2014-Aug-28 12:31N 25°47' W 080°10'0 0.0
2014-Aug-28 11:28N 25°47' W 080°10'1 1.1
2014-Aug-28 10:33N 25°46' W 080°09'9 9.1
2014-Aug-28 09:33N 25°42' W 080°00'1312.6
2014-Aug-28 08:32N 25°30' W 079°57'35113.2
2014-Aug-27 06:00N 20°54' W 083°54'19110.1 180 / 121008.0 1.529.526.031.6
2014-Aug-26 11:00N 19°06' W 081°06'32911.3 200 / 81006.0 5.4 1.028.024.030.0
2014-Aug-25 06:00N 19°18' W 075°18'24112.7 160 / 231005.010.8 5.026.022.030.3
2014-Aug-24 11:00N 22°30' W 077°54'9418.7 010 / 231005.0 5.4 2.0 30.0
2014-Aug-24 06:00N 23°30' W 079°12'12319.1 050 / 271007.0 5.029.025.030.8
2014-Aug-23 23:33N 25°27' W 079°54'1717.1
2014-Aug-23 22:33N 25°43' W 080°01'10 9.6
2014-Aug-23 21:33N 25°47' W 080°10'0 0.1
2014-Aug-23 20:31N 25°47' W 080°10'0 0.0
2014-Aug-23 19:27N 25°47' W 080°10'  

Dump ship's entire track history